createdAt,value
2019-05-06T00:02:09.029Z,81
2019-05-06T00:07:09.165Z,81
2019-05-06T00:12:09.724Z,81
2019-05-06T00:17:08.823Z,81
2019-05-06T00:22:09.255Z,81
2019-05-06T00:27:09.310Z,81
2019-05-06T00:32:10.155Z,81
2019-05-06T00:37:08.976Z,81
2019-05-06T00:42:09.376Z,82
2019-05-06T00:47:09.702Z,82
2019-05-06T00:52:08.930Z,82
2019-05-06T00:57:09.205Z,82
2019-05-06T01:02:09.879Z,82
2019-05-06T01:07:08.708Z,82
2019-05-06T01:12:09.342Z,82
2019-05-06T01:17:09.994Z,82
2019-05-06T01:22:09.196Z,82
2019-05-06T01:27:08.165Z,82
2019-05-06T01:32:09.785Z,82
2019-05-06T01:37:09.639Z,82
2019-05-06T01:42:09.459Z,83
2019-05-06T01:47:10.732Z,83
2019-05-06T01:52:09.787Z,83
2019-05-06T01:57:09.230Z,83
2019-05-06T02:02:09.657Z,83
2019-05-06T02:07:08.781Z,83
2019-05-06T02:12:09.780Z,83
2019-05-06T02:17:09.420Z,83
2019-05-06T02:22:09.641Z,83
2019-05-06T02:27:09.066Z,83
2019-05-06T02:32:24.471Z,83
2019-05-06T02:37:08.966Z,83
2019-05-06T02:42:09.113Z,83
2019-05-06T02:47:13.571Z,83
2019-05-06T02:52:09.816Z,83
2019-05-06T02:57:12.973Z,83
2019-05-06T03:02:08.395Z,83
2019-05-06T03:07:10.178Z,83
2019-05-06T03:12:09.393Z,83
2019-05-06T03:17:10.404Z,83
2019-05-06T03:22:13.153Z,83
2019-05-06T03:27:10.038Z,83
2019-05-06T03:32:21.531Z,83
2019-05-06T03:37:08.984Z,83
2019-05-06T03:42:09.828Z,84
2019-05-06T03:47:09.742Z,83
2019-05-06T03:52:09.558Z,83
2019-05-06T03:57:09.010Z,83
2019-05-06T04:02:09.491Z,83
2019-05-06T04:07:13.677Z,83
2019-05-06T04:12:09.457Z,83
2019-05-06T04:17:09.403Z,83
2019-05-06T04:22:12.553Z,83
2019-05-06T04:27:09.687Z,83
2019-05-06T04:32:09.152Z,84
2019-05-06T04:37:08.413Z,83
2019-05-06T04:42:13.106Z,84
2019-05-06T04:47:09.930Z,84
2019-05-06T04:52:13.632Z,84
2019-05-06T04:57:12.850Z,84
2019-05-06T05:02:13.264Z,83
2019-05-06T05:07:12.825Z,84
2019-05-06T05:12:09.185Z,83
2019-05-06T05:27:09.888Z,83
2019-05-06T05:32:09.916Z,83
2019-05-06T05:37:09.547Z,83
2019-05-06T05:42:12.346Z,83
2019-05-06T05:47:12.231Z,83
2019-05-06T05:52:08.680Z,83
2019-05-06T05:57:11.811Z,83
2019-05-06T06:02:09.718Z,83
2019-05-06T06:07:09.683Z,83
2019-05-06T06:22:11.827Z,83
2019-05-06T06:32:10.568Z,82
2019-05-06T06:37:09.744Z,82
2019-05-06T06:42:09.908Z,82
2019-05-06T06:47:09.912Z,82
2019-05-06T06:52:12.377Z,82
2019-05-06T06:57:09.481Z,82
2019-05-06T07:02:12.087Z,82
2019-05-06T07:07:12.894Z,81
2019-05-06T07:12:09.160Z,81
2019-05-06T07:17:10.168Z,81
2019-05-06T07:27:08.709Z,80
2019-05-06T07:32:12.159Z,80
2019-05-06T07:37:12.493Z,80
2019-05-06T07:42:13.107Z,80
2019-05-06T07:47:08.264Z,79
2019-05-06T07:52:12.219Z,79
2019-05-06T08:07:09.917Z,78
2019-05-06T08:17:12.654Z,77
2019-05-06T08:27:12.317Z,76
2019-05-06T08:37:11.995Z,74
2019-05-06T08:42:10.021Z,74
2019-05-06T08:47:09.597Z,73
2019-05-06T08:52:09.665Z,73
2019-05-06T09:02:08.745Z,72
2019-05-06T09:07:09.299Z,72
2019-05-06T09:22:08.864Z,70
2019-05-06T09:32:10.282Z,69
2019-05-06T09:42:08.473Z,68
2019-05-06T09:47:12.621Z,67
2019-05-06T09:52:12.806Z,66
2019-05-06T09:57:08.938Z,66
2019-05-06T10:02:12.348Z,65
2019-05-06T10:07:11.785Z,65
2019-05-06T10:12:12.758Z,64
2019-05-06T10:17:10.309Z,64
2019-05-06T10:22:12.660Z,63
2019-05-06T10:27:12.086Z,63
2019-05-06T10:32:11.952Z,62
2019-05-06T10:37:17.509Z,61
2019-05-06T10:42:13.185Z,60
2019-05-06T10:57:08.955Z,58
2019-05-06T11:02:09.234Z,57
2019-05-06T11:07:12.408Z,56
2019-05-06T11:12:12.439Z,56
2019-05-06T11:17:12.542Z,55
2019-05-06T11:22:10.066Z,55
2019-05-06T11:27:25.279Z,54
2019-05-06T11:32:10.356Z,54
2019-05-06T11:37:12.044Z,54
2019-05-06T11:52:12.894Z,54
2019-05-06T11:57:12.254Z,53
2019-05-06T12:02:12.711Z,53
2019-05-06T12:07:11.611Z,53
2019-05-06T12:17:12.625Z,51
2019-05-06T12:22:12.459Z,51
2019-05-06T12:37:12.100Z,50
2019-05-06T12:42:09.734Z,50
2019-05-06T12:47:13.452Z,49
2019-05-06T12:57:12.430Z,48
2019-05-06T13:02:10.055Z,48
2019-05-06T13:17:09.680Z,47
2019-05-06T13:22:13.308Z,47
2019-05-06T13:32:09.905Z,46
2019-05-06T13:37:09.952Z,46
2019-05-06T13:42:13.051Z,46
2019-05-06T13:52:12.617Z,45
2019-05-06T13:57:12.271Z,45
2019-05-06T14:02:10.066Z,44
2019-05-06T14:07:08.974Z,44
2019-05-06T14:22:12.494Z,43
2019-05-06T14:27:09.809Z,43
2019-05-06T14:32:12.309Z,43
2019-05-06T14:37:10.539Z,43
2019-05-06T14:42:12.644Z,43
2019-05-06T14:47:12.621Z,43
2019-05-06T14:52:09.619Z,43
2019-05-06T15:07:12.671Z,43
2019-05-06T15:27:11.985Z,43
2019-05-06T15:42:08.526Z,42
2019-05-06T15:47:09.871Z,43
2019-05-06T16:07:12.544Z,43
2019-05-06T16:12:12.769Z,43
2019-05-06T16:17:12.297Z,43
2019-05-06T16:22:09.812Z,43
2019-05-06T16:27:12.278Z,43
2019-05-06T16:32:10.293Z,43
2019-05-06T16:37:12.557Z,44
2019-05-06T16:42:12.681Z,44
2019-05-06T16:57:09.398Z,44
2019-05-06T17:02:13.780Z,44
2019-05-06T17:07:11.790Z,44
2019-05-06T17:17:08.519Z,44
2019-05-06T17:22:12.207Z,44
2019-05-06T17:27:12.061Z,44
2019-05-06T17:37:12.462Z,45
2019-05-06T17:47:12.028Z,45
2019-05-06T17:52:10.436Z,45
2019-05-06T17:57:12.306Z,45
2019-05-06T18:07:12.266Z,45
2019-05-06T18:12:11.958Z,46
2019-05-06T18:17:12.292Z,46
2019-05-06T18:27:10.334Z,46
2019-05-06T18:32:09.118Z,46
2019-05-06T18:37:12.517Z,46
2019-05-06T18:42:18.787Z,46
2019-05-06T18:47:12.254Z,47
2019-05-06T18:52:09.411Z,47
2019-05-06T19:02:10.030Z,48
2019-05-06T19:12:12.585Z,48
2019-05-06T19:22:13.756Z,49
2019-05-06T19:32:12.331Z,50
2019-05-06T19:37:09.002Z,50
2019-05-06T20:02:12.737Z,52
2019-05-06T20:12:12.145Z,52
2019-05-06T20:17:12.810Z,53
2019-05-06T20:22:09.243Z,53
2019-05-06T20:27:08.828Z,54
2019-05-06T20:32:12.210Z,54
2019-05-06T20:37:10.117Z,54
2019-05-06T20:42:12.595Z,54
2019-05-06T20:47:09.988Z,55
2019-05-06T20:52:09.163Z,55
2019-05-06T20:57:12.109Z,55
2019-05-06T21:02:12.416Z,56
2019-05-06T21:07:09.043Z,56
2019-05-06T21:12:09.758Z,56
2019-05-06T21:17:12.165Z,56
2019-05-06T21:22:10.419Z,56
2019-05-06T21:27:12.220Z,57
2019-05-06T21:32:10.468Z,57
2019-05-06T21:37:12.273Z,57
2019-05-06T21:42:09.193Z,58
2019-05-06T21:47:10.636Z,58
2019-05-06T21:52:09.934Z,58
2019-05-06T21:57:12.128Z,58
2019-05-06T22:02:09.011Z,59
2019-05-06T22:07:12.013Z,59
2019-05-06T22:12:09.207Z,59
2019-05-06T22:17:10.000Z,60
2019-05-06T22:22:09.369Z,60
2019-05-06T22:27:09.892Z,60
2019-05-06T22:32:09.450Z,61
2019-05-06T22:37:12.523Z,61
2019-05-06T22:42:10.765Z,61
2019-05-06T22:47:11.687Z,61
2019-05-06T22:52:12.585Z,61
2019-05-06T22:57:12.048Z,62
2019-05-06T23:02:13.016Z,62
2019-05-06T23:07:10.413Z,62
2019-05-06T23:12:12.123Z,62
2019-05-06T23:17:09.618Z,62
2019-05-06T23:22:08.854Z,63
2019-05-06T23:27:10.109Z,63
2019-05-06T23:32:13.789Z,63
2019-05-06T23:37:08.346Z,63
2019-05-06T23:42:12.133Z,63
2019-05-06T23:47:12.564Z,63
2019-05-06T23:52:12.025Z,63
2019-05-06T23:57:10.228Z,64
